Time;durP1;ratioP1;P1;durP2;ratioP2;P2;SDS_P1;SDS_P2;PMS_P1;PMS_P2;Temp;Humidity;BMP_temperature;BMP_pressure;BME280_temperature;BME280_humidity;BME280_pressure;Samples;Min_cycle;Max_cycle;Signal;HPM_P1;HPM_P2
2024/02/29 00:02:59;;;;;;;28.83;17.07;;;;;;;7.55;57.70;99099.47;6769099;29;20215;-84
2024/02/29 00:06:20;;;;;;;36.13;18.23;;;;;;;7.19;58.35;99084.16;6768330;29;20711;-84
2024/02/29 00:09:42;;;;;;;31.13;17.47;;;;;;;7.56;57.40;99084.22;6768360;29;20222;-84
2024/02/29 00:13:05;;;;;;;27.40;17.30;;;;;;;7.23;57.16;99011.22;6768475;29;20218;-84
2024/02/29 00:16:27;;;;;;;28.67;17.03;;;;;;;7.38;57.44;99079.13;6767922;29;20234;-83
2024/02/29 00:19:48;;;;;;;31.97;18.20;;;;;;;7.47;57.74;99061.16;6740141;29;20216;-84
2024/02/29 00:23:10;;;;;;;30.20;18.43;;;;;;;7.15;56.73;99043.47;6740779;29;20221;-84
2024/02/29 00:26:32;;;;;;;30.50;16.83;;;;;;;7.44;56.82;99057.00;6742260;29;20266;-84
2024/02/29 00:29:58;;;;;;;33.40;18.43;;;;;;;7.16;56.90;99045.13;6744393;29;20208;-84
2024/02/29 00:33:19;;;;;;;36.70;20.30;;;;;;;6.95;57.87;99052.94;6745629;29;20220;-83
2024/02/29 00:36:41;;;;;;;43.97;22.43;;;;;;;6.91;59.74;99056.16;6745705;29;20240;-84
2024/02/29 00:40:03;;;;;;;39.63;20.47;;;;;;;6.80;59.38;99008.31;6745482;29;20219;-85
2024/02/29 00:43:25;;;;;;;36.10;20.47;;;;;;;6.72;59.31;98993.13;6745481;29;20216;-84
2024/02/29 00:46:48;;;;;;;39.60;21.53;;;;;;;6.61;59.51;99027.53;6745670;29;20284;-84
2024/02/29 00:50:10;;;;;;;41.77;21.77;;;;;;;6.75;59.14;98990.09;6746096;29;20208;-84
2024/02/29 00:53:32;;;;;;;37.70;21.47;;;;;;;7.09;59.32;99027.25;6745408;29;20212;-84
2024/02/29 00:56:53;;;;;;;38.60;21.20;;;;;;;7.06;58.49;98969.44;6744590;29;20237;-85
2024/02/29 01:00:18;;;;;;;35.20;19.33;;;;;;;7.30;57.83;99054.25;6745021;29;20215;-83
2024/02/29 01:03:42;;;;;;;39.67;21.17;;;;;;;6.57;58.92;99005.59;6745692;29;20290;-84
2024/02/29 01:07:03;;;;;;;39.00;20.90;;;;;;;6.99;58.82;99048.06;6745946;29;20235;-84
2024/02/29 01:10:25;;;;;;;37.27;19.33;;;;;;;6.63;59.04;98988.84;6744447;29;20217;-85
2024/02/29 01:13:48;;;;;;;35.27;20.97;;;;;;;6.64;60.19;99038.72;6745122;29;20211;-83
2024/02/29 01:17:50;;;;;;;36.50;20.60;;;;;;;6.92;60.22;99041.75;6744802;29;20249;-85
2024/02/29 01:21:21;;;;;;;38.07;20.60;;;;;;;7.08;58.78;99017.53;6743376;29;20230;-84
2024/02/29 01:24:46;;;;;;;36.70;20.03;;;;;;;7.40;57.03;99004.72;6759696;29;20246;-84
2024/02/29 01:28:07;;;;;;;36.57;19.77;;;;;;;7.38;57.11;99011.28;6770866;29;20239;-83
2024/02/29 01:36:03;;;;;;;37.43;21.00;;;;;;;6.07;58.61;98958.81;6767240;29;20227;-86
2024/02/29 01:39:34;;;;;;;38.30;20.47;;;;;;;6.48;58.60;99000.47;6745179;29;20223;-85
2024/02/29 01:42:55;;;;;;;38.17;20.73;;;;;;;6.44;58.99;99002.66;6764739;29;20298;-85
2024/02/29 01:46:17;;;;;;;44.27;22.30;;;;;;;6.26;59.96;98988.66;6764416;29;20675;-85
2024/02/29 01:49:39;;;;;;;38.03;22.13;;;;;;;6.26;58.89;98943.16;6764257;29;20259;-86
2024/02/29 01:53:01;;;;;;;47.23;24.13;;;;;;;6.98;58.74;99003.53;6764044;29;20211;-85
2024/02/29 01:56:23;;;;;;;42.53;22.90;;;;;;;6.94;58.14;99005.72;6764123;29;20276;-85
2024/02/29 01:59:46;;;;;;;40.70;20.30;;;;;;;6.78;57.54;98995.09;6763231;29;20256;-85
2024/02/29 02:03:08;;;;;;;37.13;19.67;;;;;;;6.74;56.87;98979.56;6764647;29;20203;-85
2024/02/29 02:06:29;;;;;;;40.50;21.20;;;;;;;6.29;57.93;98974.09;6763036;29;20212;-85
2024/02/29 02:09:51;;;;;;;44.10;21.60;;;;;;;5.90;58.29;98941.13;6763524;29;20373;-86
2024/02/29 02:13:14;;;;;;;38.00;20.83;;;;;;;6.46;57.20;98944.41;6764262;29;20240;-86
2024/02/29 02:16:35;;;;;;;41.67;21.03;;;;;;;6.21;57.37;98931.31;6763367;29;20242;-85
2024/02/29 02:19:58;;;;;;;38.93;20.47;;;;;;;5.83;58.58;98966.91;6762188;29;20231;-86
2024/02/29 02:23:21;;;;;;;45.07;22.13;;;;;;;6.12;58.15;98913.59;6763327;29;20213;-86
2024/02/29 02:26:42;;;;;;;42.30;21.50;;;;;;;5.73;58.52;98892.16;6763324;29;20230;-85
2024/02/29 02:30:06;;;;;;;39.67;21.33;;;;;;;6.06;57.13;98928.53;6763654;29;20287;-85
2024/02/29 02:33:28;;;;;;;39.07;21.73;;;;;;;6.00;58.09;98987.25;6764065;29;20212;-85
2024/02/29 02:36:49;;;;;;;37.70;20.97;;;;;;;5.84;59.14;98980.09;6763168;29;20325;-86
2024/02/29 02:40:13;;;;;;;40.60;22.07;;;;;;;6.06;58.69;98962.47;6764036;29;20297;-85
2024/02/29 02:43:35;;;;;;;43.57;23.40;;;;;;;6.16;59.12;98963.09;6765083;29;20215;-86
2024/02/29 02:46:56;;;;;;;45.50;23.27;;;;;;;5.71;58.80;98901.38;6764204;29;20223;-85
2024/02/29 02:50:18;;;;;;;38.33;20.40;;;;;;;6.02;58.40;98924.50;6764439;29;20240;-85
2024/02/29 02:53:40;;;;;;;41.03;21.10;;;;;;;6.18;57.44;98864.75;6763370;29;20694;-85
2024/02/29 02:57:02;;;;;;;42.10;22.20;;;;;;;6.13;58.34;98940.19;6763794;29;20234;-85
2024/02/29 03:00:24;;;;;;;40.80;21.10;;;;;;;5.98;57.94;98925.03;6764507;29;20227;-85
2024/02/29 03:03:46;;;;;;;45.13;23.23;;;;;;;5.59;58.70;98894.69;6768082;29;20238;-84
2024/02/29 03:07:08;;;;;;;39.43;20.63;;;;;;;5.92;58.34;98918.56;6768926;29;20231;-84
2024/02/29 03:10:38;;;;;;;45.30;24.47;;;;;;;6.41;57.85;98928.00;6768448;29;20343;-85
2024/02/29 03:17:56;;;;;;;44.30;22.77;;;;;;;5.43;59.62;98898.25;6740185;29;20730;-85
2024/02/29 03:21:20;;;;;;;45.53;22.37;;;;;;;5.74;59.32;98923.28;6742140;29;20283;-84
2024/02/29 03:24:45;;;;;;;46.47;23.20;;;;;;;6.23;57.95;98921.25;6736869;29;20208;-86
2024/02/29 03:28:07;;;;;;;35.57;21.43;;;;;;;6.09;57.46;98897.91;6740568;29;20235;-85
2024/02/29 03:31:33;;;;;;;38.90;21.33;;;;;;;5.82;58.51;98928.63;6743601;29;20216;-85
2024/02/29 03:43:58;;;;;;;43.73;23.40;;;;;;;5.94;58.07;98907.66;6615337;30;20347;-84
2024/02/29 03:51:51;;;;;;;38.97;20.27;;;;;;;5.12;59.36;98843.88;6718092;29;20223;-86
2024/02/29 04:03:52;;;;;;;46.20;22.10;;;;;;;5.66;58.26;98907.22;6667781;29;20303;-84
2024/02/29 04:16:04;;;;;;;42.37;22.30;;;;;;;5.50;59.17;98917.13;6642880;29;20297;-84
2024/02/29 04:28:44;;;;;;;45.00;22.90;;;;;;;5.87;57.89;98907.53;6541811;30;20248;-86
2024/02/29 04:32:08;;;;;;;42.77;23.07;;;;;;;5.44;57.56;98829.59;6548657;30;20457;-85
2024/02/29 04:35:29;;;;;;;42.60;23.13;;;;;;;5.66;57.51;98903.72;6653377;29;20758;-87
2024/02/29 04:38:51;;;;;;;44.17;22.57;;;;;;;5.65;57.96;98910.09;6665464;29;20245;-87
2024/02/29 04:42:13;;;;;;;44.50;22.53;;;;;;;5.57;57.79;98845.91;6665508;29;20258;-87
2024/02/29 04:45:35;;;;;;;48.00;22.40;;;;;;;5.53;57.48;98871.31;6667637;29;20247;-87
2024/02/29 04:49:00;;;;;;;41.20;21.53;;;;;;;5.39;57.96;98906.81;6652795;29;20327;-87
2024/02/29 04:52:22;;;;;;;44.10;22.40;;;;;;;5.10;58.67;98899.34;6669441;29;20221;-87
2024/02/29 04:55:54;;;;;;;45.60;23.67;;;;;;;5.33;58.78;98865.56;6693604;29;20231;-88
2024/02/29 04:59:20;;;;;;;41.30;22.57;;;;;;;5.01;58.71;98851.41;6694489;29;20286;-88
2024/02/29 05:06:38;;;;;;;44.23;21.93;;;;;;;5.33;58.42;98891.44;6694737;29;20236;-87
2024/02/29 05:10:00;;;;;;;43.93;22.60;;;;;;;5.07;58.45;98858.75;6743012;29;20247;-87
2024/02/29 05:13:22;;;;;;;44.77;21.87;;;;;;;5.63;57.66;98869.28;6747983;29;20208;-87
2024/02/29 05:16:47;;;;;;;42.23;22.27;;;;;;;5.93;57.35;98879.22;6745576;29;20267;-87
2024/02/29 07:20:46;;;;;;;47.10;24.00;;;;;;;7.76;57.77;98774.09;6740502;29;20274;-88
2024/02/29 07:24:08;;;;;;;45.10;24.07;;;;;;;7.49;58.28;98739.91;6740354;29;20222;-86
2024/02/29 07:31:45;;;;;;;47.37;26.10;;;;;;;8.55;56.57;98753.28;6738433;29;20218;-85
2024/02/29 07:35:11;;;;;;;40.73;24.07;;;;;;;8.99;53.50;98753.84;6736910;29;20719;-85
2024/02/29 07:38:33;;;;;;;48.47;27.73;;;;;;;9.01;53.89;98754.47;6734696;29;20238;-85
2024/02/29 07:41:55;;;;;;;41.87;25.37;;;;;;;9.35;53.50;98766.09;6739422;29;20249;-86
2024/02/29 07:45:16;;;;;;;46.40;24.57;;;;;;;9.64;51.78;98755.03;6731936;29;20250;-82
2024/02/29 07:48:38;;;;;;;46.17;26.20;;;;;;;9.79;52.43;98758.44;6730412;29;20316;-79
2024/02/29 07:52:01;;;;;;;44.33;25.03;;;;;;;10.12;51.25;98761.25;6731311;29;20244;-80
2024/02/29 07:55:23;;;;;;;42.50;25.03;;;;;;;10.22;50.14;98759.81;6729307;29;20578;-80
2024/02/29 07:58:45;;;;;;;43.83;24.93;;;;;;;10.38;50.48;98748.66;6729754;29;20372;-80
2024/02/29 08:02:07;;;;;;;33.07;21.40;;;;;;;10.62;50.18;98748.06;6729897;29;20307;-80
2024/02/29 08:05:29;;;;;;;30.50;20.10;;;;;;;11.33;49.64;98744.47;6731872;29;20220;-80
2024/02/29 08:08:50;;;;;;;29.07;17.13;;;;;;;11.16;48.98;98742.44;6735616;29;20712;-80
2024/02/29 08:12:13;;;;;;;25.57;17.73;;;;;;;11.22;49.27;98750.50;6735657;29;20242;-80
2024/02/29 08:15:34;;;;;;;23.90;17.23;;;;;;;11.59;48.18;98740.91;6734447;29;20259;-80
2024/02/29 08:18:56;;;;;;;22.57;16.57;;;;;;;11.17;47.62;98739.53;6734855;29;20232;-81
2024/02/29 08:22:18;;;;;;;32.03;19.80;;;;;;;10.60;50.10;98733.13;6734506;29;20580;-79
2024/02/29 08:25:39;;;;;;;25.23;17.47;;;;;;;10.66;49.86;98737.69;6728248;29;20244;-80
2024/02/29 08:29:02;;;;;;;29.10;18.70;;;;;;;10.97;50.56;98733.34;6733497;29;20232;-79
2024/02/29 08:32:24;;;;;;;28.10;18.60;;;;;;;10.97;49.99;98727.09;6734397;29;20684;-80
2024/02/29 08:35:45;;;;;;;25.93;18.53;;;;;;;11.56;49.16;98722.41;6734270;29;20295;-79
2024/02/29 08:39:07;;;;;;;24.87;17.60;;;;;;;11.63;48.17;98715.16;6733501;29;20730;-80
2024/02/29 08:42:28;;;;;;;25.20;16.50;;;;;;;11.72;48.78;98713.84;6735063;29;20252;-80
2024/02/29 08:45:52;;;;;;;26.37;18.10;;;;;;;12.29;47.66;98695.66;6734654;29;20205;-80
2024/02/29 08:49:14;;;;;;;25.97;17.93;;;;;;;12.58;48.48;98694.19;6733071;29;20240;-80
2024/02/29 08:52:35;;;;;;;23.07;16.60;;;;;;;12.74;47.79;98689.06;6733603;29;20271;-80
2024/02/29 08:55:57;;;;;;;22.73;16.83;;;;;;;12.81;47.05;98634.91;6729118;29;20404;-80
2024/02/29 08:59:18;;;;;;;20.90;16.47;;;;;;;13.77;45.89;98682.75;6729163;29;20236;-79
2024/02/29 09:02:41;;;;;;;22.73;16.40;;;;;;;13.69;46.12;98683.06;6732097;29;20248;-80
2024/02/29 09:06:03;;;;;;;23.80;17.17;;;;;;;14.59;43.89;98680.13;6733508;29;20301;-80
2024/02/29 09:09:24;;;;;;;23.03;16.93;;;;;;;14.47;44.76;98660.28;6728693;29;20243;-80
2024/02/29 09:12:46;;;;;;;25.37;17.50;;;;;;;14.53;44.05;98667.47;6732763;29;20364;-80
2024/02/29 09:16:08;;;;;;;24.27;17.73;;;;;;;15.25;43.81;98667.03;6732504;29;20235;-80
2024/02/29 09:19:31;;;;;;;24.50;17.40;;;;;;;15.44;43.14;98660.41;6732180;29;20901;-80
2024/02/29 09:22:53;;;;;;;26.37;18.57;;;;;;;15.12;44.30;98653.69;6732903;29;20702;-80
2024/02/29 09:26:16;;;;;;;27.10;20.93;;;;;;;15.50;43.54;98632.28;6732949;29;20346;-80
2024/02/29 09:29:38;;;;;;;27.40;19.70;;;;;;;16.12;42.76;98615.84;6733573;29;20219;-80
2024/02/29 09:32:59;;;;;;;29.60;19.27;;;;;;;16.17;42.54;98625.97;6729048;29;20364;-81
2024/02/29 09:36:22;;;;;;;27.90;20.60;;;;;;;16.47;42.71;98624.66;6730390;29;20278;-80
2024/02/29 09:39:43;;;;;;;32.17;21.20;;;;;;;16.20;42.83;98620.88;6733066;29;20225;-80
2024/02/29 09:43:05;;;;;;;30.13;21.93;;;;;;;16.46;42.70;98611.28;6732228;29;20307;-79
2024/02/29 09:46:27;;;;;;;31.30;22.40;;;;;;;15.83;43.44;98573.44;6732010;29;20705;-79
2024/02/29 09:49:48;;;;;;;33.93;23.47;;;;;;;14.98;44.44;98595.28;6730380;29;20457;-79
2024/02/29 09:53:12;;;;;;;36.37;22.87;;;;;;;14.81;45.65;98597.06;6730457;29;20238;-79
2024/02/29 09:56:34;;;;;;;35.53;22.23;;;;;;;15.80;44.88;98594.84;6729871;29;20323;-79
2024/02/29 09:59:57;;;;;;;31.57;21.67;;;;;;;16.22;44.18;98586.09;6729901;29;20307;-79
2024/02/29 10:03:18;;;;;;;34.33;21.67;;;;;;;15.97;43.43;98565.78;6731038;29;20341;-79
2024/02/29 10:06:40;;;;;;;33.90;22.10;;;;;;;16.06;43.87;98583.34;6731482;29;20317;-79
2024/02/29 10:10:09;;;;;;;33.00;23.07;;;;;;;15.23;45.30;98565.94;6730683;29;20246;-79
2024/02/29 10:13:37;;;;;;;31.93;21.70;;;;;;;16.24;44.03;98561.34;6728012;29;20294;-79
2024/02/29 10:16:58;;;;;;;35.30;23.40;;;;;;;16.20;44.35;98557.47;6731302;29;20253;-79
2024/02/29 10:20:21;;;;;;;30.93;22.10;;;;;;;17.10;41.14;98548.78;6730145;29;20426;-79
2024/02/29 10:23:43;;;;;;;30.87;21.20;;;;;;;16.85;41.46;98491.28;6730973;29;20348;-79
2024/02/29 10:27:06;;;;;;;30.27;21.47;;;;;;;17.01;42.54;98538.59;6730812;29;20236;-79
2024/02/29 10:30:28;;;;;;;31.97;21.77;;;;;;;16.74;41.86;98503.09;6730923;29;20280;-79
2024/02/29 10:33:50;;;;;;;30.73;21.90;;;;;;;16.85;42.57;98537.56;6731502;29;20309;-79
2024/02/29 10:37:11;;;;;;;31.50;21.60;;;;;;;15.63;43.71;98520.59;6730842;29;20326;-79
2024/02/29 10:40:33;;;;;;;33.70;23.03;;;;;;;16.15;44.16;98527.50;6731433;29;20217;-78
2024/02/29 10:43:58;;;;;;;31.20;21.27;;;;;;;16.22;42.65;98525.44;6731511;29;20219;-79
2024/02/29 10:47:20;;;;;;;30.23;20.67;;;;;;;15.21;44.45;98495.56;6731172;29;20323;-78
2024/02/29 10:50:53;;;;;;;29.13;20.60;;;;;;;16.23;43.99;98508.03;6730892;29;20312;-79
2024/02/29 10:54:18;;;;;;;28.13;20.33;;;;;;;17.18;42.05;98509.41;6731202;29;20230;-78
2024/02/29 10:57:44;;;;;;;27.70;20.13;;;;;;;17.51;40.10;98496.44;6730783;29;20371;-79
2024/02/29 11:01:08;;;;;;;27.67;19.87;;;;;;;17.09;40.74;98475.50;6730297;29;20288;-79
2024/02/29 11:04:29;;;;;;;31.20;21.03;;;;;;;17.70;39.54;98486.81;6730201;29;20247;-79
2024/02/29 11:07:51;;;;;;;25.73;18.87;;;;;;;17.17;40.61;98477.78;6730002;29;20740;-79
2024/02/29 11:11:13;;;;;;;25.00;18.00;;;;;;;17.28;41.23;98465.94;6729619;29;20685;-78
2024/02/29 11:14:36;;;;;;;26.93;20.07;;;;;;;17.01;40.67;98455.00;6730535;29;20580;-79
2024/02/29 11:17:59;;;;;;;27.33;18.77;;;;;;;16.29;41.18;98403.66;6730787;29;20243;-78
2024/02/29 11:21:28;;;;;;;28.20;18.67;;;;;;;16.32;42.89;98436.63;6730930;29;20215;-78
2024/02/29 11:24:50;;;;;;;23.70;18.03;;;;;;;16.25;42.21;98444.13;6730301;29;20200;-80
2024/02/29 11:28:11;;;;;;;26.73;18.57;;;;;;;16.86;41.97;98437.66;6731121;29;20229;-80
2024/02/29 11:31:41;;;;;;;24.30;17.03;;;;;;;16.16;41.22;98431.22;6730935;29;20294;-81
2024/02/29 11:35:05;;;;;;;23.90;18.07;;;;;;;16.05;42.32;98426.69;6733020;29;20570;-78
2024/02/29 11:38:26;;;;;;;23.93;17.63;;;;;;;16.02;41.93;98432.63;6729509;29;20353;-80
2024/02/29 11:41:48;;;;;;;23.87;16.80;;;;;;;15.70;42.46;98426.94;6734594;29;20208;-79
2024/02/29 11:45:19;;;;;;;20.57;15.87;;;;;;;16.05;41.49;98415.81;6735952;29;20338;-79
2024/02/29 11:48:40;;;;;;;23.30;17.13;;;;;;;16.13;42.05;98399.06;6735142;29;20259;-79
2024/02/29 11:52:04;;;;;;;22.83;16.63;;;;;;;16.84;40.42;98396.22;6735464;29;21022;-79
2024/02/29 11:55:26;;;;;;;21.43;16.27;;;;;;;17.08;40.71;98390.25;6736497;29;20230;-81
2024/02/29 11:58:48;;;;;;;24.10;16.40;;;;;;;17.00;39.93;98385.28;6743864;29;20243;-81
2024/02/29 12:02:10;;;;;;;24.53;16.83;;;;;;;18.13;38.67;98385.72;6735724;29;20209;-81
2024/02/29 12:05:34;;;;;;;18.53;15.37;;;;;;;18.08;38.39;98384.84;6737819;29;20720;-80
2024/02/29 12:08:59;;;;;;;20.43;16.33;;;;;;;18.23;37.61;98368.59;6735569;29;20378;-81
2024/02/29 12:12:20;;;;;;;23.70;15.40;;;;;;;18.53;37.82;98366.88;6730202;29;20273;-81
2024/02/29 12:15:42;;;;;;;21.70;15.33;;;;;;;18.88;37.65;98353.31;6734985;29;20232;-80
2024/02/29 12:19:04;;;;;;;19.30;14.23;;;;;;;18.54;36.92;98343.94;6735817;29;20299;-80
2024/02/29 12:22:25;;;;;;;27.97;15.03;;;;;;;18.27;37.47;98339.69;6736610;29;20678;-81
2024/02/29 12:25:48;;;;;;;18.03;14.20;;;;;;;18.50;36.22;98333.81;6740028;29;20221;-80
2024/02/29 12:29:10;;;;;;;17.33;13.50;;;;;;;18.94;35.59;98324.97;6735159;29;20303;-81
2024/02/29 12:32:31;;;;;;;19.63;14.13;;;;;;;18.10;36.55;98315.31;6735567;29;20683;-81
2024/02/29 12:35:53;;;;;;;18.10;13.50;;;;;;;18.31;36.63;98314.38;6734716;29;20295;-81
2024/02/29 12:39:18;;;;;;;18.63;14.33;;;;;;;17.57;37.04;98295.63;6734146;29;20328;-82
2024/02/29 12:42:42;;;;;;;17.57;13.57;;;;;;;17.07;37.22;98230.63;6739595;29;20305;-80
2024/02/29 12:46:04;;;;;;;18.33;13.23;;;;;;;17.15;37.20;98234.78;6734221;29;20715;-81
2024/02/29 12:49:25;;;;;;;19.60;13.80;;;;;;;18.44;35.40;98283.84;6734023;29;20318;-81
2024/02/29 12:52:53;;;;;;;17.97;14.17;;;;;;;17.35;37.08;98218.56;6733844;29;20212;-80
2024/02/29 12:56:15;;;;;;;18.87;14.63;;;;;;;17.84;36.75;98288.16;6733878;29;20267;-81
2024/02/29 12:59:38;;;;;;;19.60;13.87;;;;;;;17.51;37.36;98286.56;6732966;29;20308;-81
2024/02/29 13:02:59;;;;;;;20.43;13.97;;;;;;;17.88;37.05;98264.72;6734390;29;20227;-81
2024/02/29 13:06:21;;;;;;;18.50;13.97;;;;;;;16.49;38.67;98263.28;6733234;29;20216;-81
2024/02/29 13:09:42;;;;;;;18.10;13.23;;;;;;;17.15;38.10;98254.66;6734256;29;20223;-80
2024/02/29 13:13:04;;;;;;;15.33;12.77;;;;;;;17.64;37.51;98226.13;6720228;29;20274;-79
2024/02/29 13:16:27;;;;;;;17.23;13.13;;;;;;;18.35;36.54;98249.94;6734337;29;20204;-79
2024/02/29 13:19:49;;;;;;;18.53;13.80;;;;;;;18.32;35.65;98241.47;6733535;29;20332;-79
2024/02/29 13:23:10;;;;;;;25.00;17.47;;;;;;;17.32;36.92;98227.25;6733686;29;20220;-80
2024/02/29 13:26:32;;;;;;;19.30;14.93;;;;;;;17.73;37.08;98230.00;6733653;29;20260;-80
2024/02/29 13:29:55;;;;;;;19.13;13.50;;;;;;;17.84;36.82;98230.88;6706603;29;20406;-80
2024/02/29 13:33:18;;;;;;;23.33;16.23;;;;;;;17.77;37.66;98222.94;6707084;29;20734;-80
2024/02/29 13:36:40;;;;;;;22.03;16.17;;;;;;;17.93;36.68;98193.84;6707966;29;20236;-81
2024/02/29 13:40:02;;;;;;;19.50;15.03;;;;;;;17.29;37.93;98208.72;6706796;29;20257;-79
2024/02/29 13:43:24;;;;;;;21.43;15.40;;;;;;;18.32;36.50;98189.63;6708014;29;20583;-80
2024/02/29 13:46:46;;;;;;;17.73;13.03;;;;;;;18.16;36.74;98185.19;6706965;29;20319;-80
2024/02/29 13:50:10;;;;;;;15.10;11.37;;;;;;;18.86;35.93;98174.44;6706169;29;20697;-80
2024/02/29 13:53:31;;;;;;;16.70;12.83;;;;;;;18.52;35.20;98096.84;6728395;29;20245;-80
2024/02/29 13:56:53;;;;;;;17.73;13.03;;;;;;;18.92;35.21;98148.75;6732981;29;20319;-83
2024/02/29 14:00:15;;;;;;;17.13;12.03;;;;;;;19.23;34.61;98155.84;6732657;29;20339;-81
2024/02/29 14:03:37;;;;;;;16.17;12.30;;;;;;;19.19;34.16;98130.94;6732283;29;20299;-81
2024/02/29 14:07:00;;;;;;;15.37;12.73;;;;;;;19.44;33.78;98133.66;6733030;29;20232;-80
2024/02/29 14:10:22;;;;;;;15.90;12.70;;;;;;;18.66;35.06;98136.16;6732426;29;20370;-80
2024/02/29 14:13:44;;;;;;;16.43;12.37;;;;;;;17.82;36.29;98132.16;6732480;29;20204;-81
2024/02/29 14:17:05;;;;;;;16.50;13.33;;;;;;;17.48;37.08;98136.38;6732801;29;20385;-81
2024/02/29 14:20:27;;;;;;;17.40;13.17;;;;;;;17.16;38.53;98132.91;6732077;29;20699;-80
2024/02/29 14:23:50;;;;;;;20.37;14.13;;;;;;;16.77;39.39;98121.47;6732711;29;20292;-81
2024/02/29 14:27:12;;;;;;;18.13;13.77;;;;;;;17.07;38.23;98074.53;6731355;29;20236;-85
2024/02/29 14:30:36;;;;;;;19.60;13.30;;;;;;;16.68;38.97;98057.69;6732468;29;20211;-81
2024/02/29 14:33:58;;;;;;;18.03;13.23;;;;;;;16.13;39.98;98045.50;6732945;29;20204;-80
2024/02/29 14:37:19;;;;;;;19.47;14.07;;;;;;;16.25;40.76;98082.34;6732277;29;20356;-81
2024/02/29 14:40:42;;;;;;;20.13;14.00;;;;;;;15.89;41.06;98079.53;6734058;29;20642;-80
2024/02/29 14:44:04;;;;;;;16.97;13.03;;;;;;;16.51;40.83;98088.88;6732618;29;20215;-80
2024/02/29 14:47:27;;;;;;;16.50;12.40;;;;;;;16.41;40.13;98083.34;6731554;29;20240;-81
2024/02/29 14:50:48;;;;;;;19.90;14.30;;;;;;;16.26;41.14;98084.00;6732148;29;20668;-80
2024/02/29 14:54:10;;;;;;;18.27;13.17;;;;;;;16.50;40.82;98073.59;6732799;29;20310;-81
2024/02/29 14:57:33;;;;;;;17.67;13.57;;;;;;;16.34;40.45;98071.81;6732517;29;20236;-81
2024/02/29 15:00:54;;;;;;;20.30;13.77;;;;;;;16.31;40.40;98051.41;6732508;29;20303;-80
2024/02/29 15:04:16;;;;;;;19.70;13.53;;;;;;;16.67;39.96;98068.81;6733235;29;20967;-81
2024/02/29 15:07:38;;;;;;;20.53;14.10;;;;;;;16.91;40.26;98053.72;6732218;29;20235;-81
2024/02/29 15:10:59;;;;;;;16.73;13.27;;;;;;;17.40;39.07;98055.94;6733369;29;20559;-83
2024/02/29 15:14:22;;;;;;;19.83;13.97;;;;;;;16.50;40.65;98051.81;6734338;29;20303;-81
2024/02/29 15:17:44;;;;;;;19.40;14.13;;;;;;;16.02;41.70;98039.16;6733209;29;20278;-81
2024/02/29 15:21:07;;;;;;;21.63;14.60;;;;;;;15.89;42.14;98041.47;6733442;29;20299;-81
2024/02/29 15:24:29;;;;;;;18.47;14.27;;;;;;;15.68;42.84;98037.72;6733926;29;20201;-81
2024/02/29 15:27:53;;;;;;;22.30;14.83;;;;;;;16.14;42.24;98042.53;6732650;29;20239;-81
2024/02/29 15:31:16;;;;;;;20.63;15.10;;;;;;;16.70;41.65;98033.72;6733955;29;20220;-81
2024/02/29 15:34:38;;;;;;;18.73;14.07;;;;;;;17.23;40.01;98032.69;6734879;29;20308;-81
2024/02/29 15:37:59;;;;;;;22.80;15.40;;;;;;;16.91;40.87;98027.34;6735427;29;20270;-81
2024/02/29 15:41:21;;;;;;;21.03;15.30;;;;;;;16.58;41.28;98033.09;6736385;29;20220;-81
2024/02/29 15:44:42;;;;;;;27.27;15.13;;;;;;;16.81;40.79;98021.81;6735933;29;20218;-80
2024/02/29 15:48:06;;;;;;;21.90;15.37;;;;;;;16.36;41.53;98010.63;6734787;29;20664;-82
2024/02/29 15:51:28;;;;;;;20.67;15.30;;;;;;;17.07;40.69;98015.44;6735267;29;20298;-81
2024/02/29 15:54:49;;;;;;;24.60;16.87;;;;;;;17.00;40.47;98009.44;6734533;29;20214;-82
2024/02/29 15:58:11;;;;;;;19.53;15.00;;;;;;;16.87;40.72;98009.88;6734038;29;20770;-82
2024/02/29 16:01:32;;;;;;;24.70;16.87;;;;;;;16.44;41.70;98010.16;6734831;29;20238;-81
2024/02/29 16:04:55;;;;;;;20.90;15.77;;;;;;;15.87;42.59;97978.41;6736220;29;20258;-82
2024/02/29 16:08:18;;;;;;;23.10;16.30;;;;;;;15.84;42.46;97955.28;6734272;29;20269;-82
2024/02/29 16:11:40;;;;;;;24.03;17.10;;;;;;;15.88;43.16;98018.94;6735429;29;20707;-82
2024/02/29 16:15:01;;;;;;;22.50;16.30;;;;;;;15.54;42.65;97938.69;6737358;29;20264;-83
2024/02/29 16:18:23;;;;;;;22.73;17.20;;;;;;;15.31;43.80;97993.28;6736223;29;20313;-82
2024/02/29 16:21:45;;;;;;;23.80;16.23;;;;;;;15.22;44.40;98002.16;6734999;29;20688;-83
2024/02/29 16:25:07;;;;;;;25.30;16.77;;;;;;;14.88;44.88;97989.78;6734500;29;20274;-79
2024/02/29 16:28:29;;;;;;;23.07;15.47;;;;;;;15.76;43.55;97998.41;6736633;29;20243;-83
2024/02/29 16:31:50;;;;;;;24.17;16.17;;;;;;;14.97;44.31;97986.38;6738297;29;20222;-81
2024/02/29 16:35:12;;;;;;;22.80;16.43;;;;;;;14.24;45.97;98001.31;6738105;29;20218;-81
2024/02/29 16:38:37;;;;;;;24.60;16.43;;;;;;;14.63;45.32;98000.28;6738166;29;20235;-82
2024/02/29 16:41:58;;;;;;;23.47;16.33;;;;;;;14.51;45.44;97983.31;6736546;29;20308;-81
2024/02/29 16:45:20;;;;;;;25.00;16.17;;;;;;;14.98;44.67;97966.28;6738163;29;20744;-81
2024/02/29 16:48:41;;;;;;;24.53;16.30;;;;;;;15.21;43.94;97982.31;6737652;29;20259;-81
2024/02/29 16:52:03;;;;;;;22.43;16.73;;;;;;;15.31;43.52;97976.16;6742368;29;20210;-81
2024/02/29 16:55:26;;;;;;;20.03;14.53;;;;;;;14.46;44.54;97913.50;6743890;29;20702;-81
2024/02/29 16:58:48;;;;;;;25.93;16.83;;;;;;;14.87;44.58;97978.09;6737380;29;20240;-80
2024/02/29 17:02:09;;;;;;;22.73;15.50;;;;;;;14.45;45.17;97979.69;6737279;29;20309;-80
2024/02/29 17:05:32;;;;;;;20.00;14.37;;;;;;;14.84;44.25;97966.91;6737722;29;20225;-80
2024/02/29 17:08:53;;;;;;;22.87;14.57;;;;;;;14.82;44.58;97969.88;6737048;29;20315;-80
2024/02/29 17:12:16;;;;;;;22.17;15.07;;;;;;;14.73;44.83;97973.28;6730233;29;21194;-81
2024/02/29 17:15:37;;;;;;;22.00;14.37;;;;;;;14.76;44.68;97981.75;6729799;29;20793;-81
2024/02/29 17:18:59;;;;;;;22.67;14.63;;;;;;;14.66;44.91;97988.94;6735990;29;20337;-81
2024/02/29 17:22:22;;;;;;;21.27;14.63;;;;;;;14.18;45.20;97918.25;6737295;29;20310;-82
2024/02/29 17:25:44;;;;;;;28.97;16.70;;;;;;;14.22;45.68;97979.06;6737224;29;20573;-81
2024/02/29 17:29:07;;;;;;;24.27;17.03;;;;;;;14.17;45.71;97965.41;6728151;29;20272;-81
2024/02/29 17:32:29;;;;;;;25.93;16.50;;;;;;;14.47;45.48;97979.44;6736546;29;20293;-81
2024/02/29 17:35:51;;;;;;;22.30;16.27;;;;;;;14.48;45.16;97965.63;6737474;29;20594;-84
2024/02/29 17:39:12;;;;;;;27.13;16.70;;;;;;;14.58;44.93;97975.81;6735989;29;20319;-81
2024/02/29 17:42:34;;;;;;;23.27;15.90;;;;;;;14.53;45.10;97973.00;6737139;29;20267;-81
2024/02/29 17:45:57;;;;;;;25.50;15.70;;;;;;;13.94;45.53;97873.44;6731846;29;20220;-84
2024/02/29 17:49:18;;;;;;;25.40;17.13;;;;;;;14.11;45.33;97926.53;6734432;29;20233;-81
2024/02/29 17:52:40;;;;;;;28.03;17.23;;;;;;;13.78;46.07;97904.91;6736849;29;20244;-82
2024/02/29 17:56:01;;;;;;;29.60;17.47;;;;;;;14.15;45.77;97956.72;6737083;29;20241;-81
2024/02/29 17:59:23;;;;;;;26.10;18.17;;;;;;;13.80;46.60;97942.59;6736971;29;20285;-81
2024/02/29 18:02:46;;;;;;;23.33;16.57;;;;;;;13.86;46.76;97941.63;6736361;29;20245;-82
2024/02/29 18:06:08;;;;;;;24.50;16.33;;;;;;;13.90;46.75;97930.03;6734675;29;20755;-81
2024/02/29 18:09:29;;;;;;;24.93;16.20;;;;;;;13.96;46.44;97929.03;6733933;29;20245;-82
2024/02/29 18:12:51;;;;;;;27.57;16.23;;;;;;;13.48;47.66;97927.94;6734743;29;20273;-82
2024/02/29 18:16:12;;;;;;;24.03;17.00;;;;;;;13.41;47.64;97901.06;6733774;29;20276;-82
2024/02/29 18:19:38;;;;;;;22.27;15.97;;;;;;;13.61;47.46;97916.78;6734544;29;20278;-83
2024/02/29 18:22:59;;;;;;;24.70;16.33;;;;;;;13.43;47.69;97922.44;6734193;29;20328;-81
2024/02/29 18:26:21;;;;;;;23.53;16.17;;;;;;;13.58;47.26;97920.00;6733468;29;20702;-82
2024/02/29 18:29:44;;;;;;;25.33;16.87;;;;;;;13.41;47.64;97898.34;6733606;29;20248;-82
2024/02/29 18:33:05;;;;;;;26.77;17.13;;;;;;;13.31;48.17;97921.69;6732964;29;20236;-82